sensor_id;sensor_type;location;lat;lon;timestamp;pressure;altitude;pressure_sealevel;temperature;humidity
64340;BME280;63709;53.258;-8.814;2023-07-22T00:02:21;100873.75;;;18.89;100.00
64340;BME280;63709;53.258;-8.814;2023-07-22T00:04:50;100870.03;;;18.98;100.00
64340;BME280;63709;53.258;-8.814;2023-07-22T00:07:15;100873.25;;;18.94;100.00
64340;BME280;63709;53.258;-8.814;2023-07-22T00:09:42;100862.94;;;18.97;100.00
64340;BME280;63709;53.258;-8.814;2023-07-22T00:12:12;100857.34;;;19.07;100.00
64340;BME280;63709;53.258;-8.814;2023-07-22T00:14:38;100851.78;;;19.00;100.00
64340;BME280;63709;53.258;-8.814;2023-07-22T00:17:05;100847.38;;;19.07;100.00
64340;BME280;63709;53.258;-8.814;2023-07-22T00:19:31;100843.50;;;19.10;100.00
64340;BME280;63709;53.258;-8.814;2023-07-22T00:22:00;100838.56;;;19.05;100.00
64340;BME280;63709;53.258;-8.814;2023-07-22T00:24:28;100838.09;;;19.10;100.00
64340;BME280;63709;53.258;-8.814;2023-07-22T00:26:54;100834.03;;;19.14;100.00
64340;BME280;63709;53.258;-8.814;2023-07-22T00:29:19;100836.91;;;19.21;100.00
64340;BME280;63709;53.258;-8.814;2023-07-22T00:31:45;100827.75;;;19.22;100.00
64340;BME280;63709;53.258;-8.814;2023-07-22T00:34:11;100828.59;;;19.22;100.00
64340;BME280;63709;53.258;-8.814;2023-07-22T00:36:37;100821.28;;;19.31;100.00
64340;BME280;63709;53.258;-8.814;2023-07-22T00:39:04;100816.38;;;19.34;100.00
64340;BME280;63709;53.258;-8.814;2023-07-22T00:41:30;100810.81;;;19.36;100.00
64340;BME280;63709;53.258;-8.814;2023-07-22T00:43:57;100798.13;;;19.37;100.00
64340;BME280;63709;53.258;-8.814;2023-07-22T00:46:25;100799.31;;;19.34;100.00
64340;BME280;63709;53.258;-8.814;2023-07-22T00:48:53;100797.44;;;19.34;100.00
64340;BME280;63709;53.258;-8.814;2023-07-22T00:51:18;100788.78;;;19.39;100.00
64340;BME280;63709;53.258;-8.814;2023-07-22T00:53:46;100791.50;;;19.39;100.00
64340;BME280;63709;53.258;-8.814;2023-07-22T00:56:12;100780.81;;;19.46;100.00
64340;BME280;63709;53.258;-8.814;2023-07-22T00:58:39;100782.16;;;19.50;100.00
64340;BME280;63709;53.258;-8.814;2023-07-22T01:01:07;100784.22;;;19.48;100.00
64340;BME280;63709;53.258;-8.814;2023-07-22T01:03:33;100774.72;;;19.52;100.00
64340;BME280;63709;53.258;-8.814;2023-07-22T01:05:59;100778.28;;;19.52;100.00
64340;BME280;63709;53.258;-8.814;2023-07-22T01:08:26;100768.13;;;19.54;100.00
64340;BME280;63709;53.258;-8.814;2023-07-22T01:10:53;100770.28;;;19.59;100.00
64340;BME280;63709;53.258;-8.814;2023-07-22T01:13:20;100758.63;;;19.58;100.00
64340;BME280;63709;53.258;-8.814;2023-07-22T01:15:45;100760.31;;;19.59;100.00
64340;BME280;63709;53.258;-8.814;2023-07-22T01:18:11;100759.31;;;19.52;100.00
64340;BME280;63709;53.258;-8.814;2023-07-22T01:20:37;100746.81;;;19.51;100.00
64340;BME280;63709;53.258;-8.814;2023-07-22T01:23:03;100750.69;;;19.49;100.00
64340;BME280;63709;53.258;-8.814;2023-07-22T01:25:30;100742.75;;;19.47;100.00
64340;BME280;63709;53.258;-8.814;2023-07-22T01:27:56;100746.47;;;19.46;100.00
64340;BME280;63709;53.258;-8.814;2023-07-22T01:30:22;100732.44;;;19.43;100.00
64340;BME280;63709;53.258;-8.814;2023-07-22T01:32:48;100736.34;;;19.40;100.00
64340;BME280;63709;53.258;-8.814;2023-07-22T01:35:15;100730.09;;;19.40;100.00
64340;BME280;63709;53.258;-8.814;2023-07-22T01:37:43;100723.00;;;19.30;100.00
64340;BME280;63709;53.258;-8.814;2023-07-22T01:40:18;100726.72;;;19.38;100.00
64340;BME280;63709;53.258;-8.814;2023-07-22T01:42:43;100725.53;;;19.40;100.00
64340;BME280;63709;53.258;-8.814;2023-07-22T01:45:12;100710.16;;;19.32;100.00
64340;BME280;63709;53.258;-8.814;2023-07-22T01:47:37;100714.41;;;19.27;100.00
64340;BME280;63709;53.258;-8.814;2023-07-22T01:50:03;100708.69;;;19.22;100.00
64340;BME280;63709;53.258;-8.814;2023-07-22T01:52:29;100698.50;;;19.24;100.00
64340;BME280;63709;53.258;-8.814;2023-07-22T01:54:58;100699.69;;;19.29;100.00
64340;BME280;63709;53.258;-8.814;2023-07-22T01:57:23;100701.22;;;19.32;100.00
64340;BME280;63709;53.258;-8.814;2023-07-22T01:59:49;100692.41;;;19.30;100.00
64340;BME280;63709;53.258;-8.814;2023-07-22T02:02:14;100685.50;;;19.19;100.00
64340;BME280;63709;53.258;-8.814;2023-07-22T02:04:39;100686.00;;;19.23;100.00
64340;BME280;63709;53.258;-8.814;2023-07-22T02:07:07;100680.41;;;19.24;100.00
64340;BME280;63709;53.258;-8.814;2023-07-22T02:09:33;100674.34;;;19.22;100.00
64340;BME280;63709;53.258;-8.814;2023-07-22T02:12:02;100675.19;;;19.23;100.00
64340;BME280;63709;53.258;-8.814;2023-07-22T02:14:27;100663.31;;;19.24;100.00
64340;BME280;63709;53.258;-8.814;2023-07-22T02:16:53;100668.25;;;19.20;100.00
64340;BME280;63709;53.258;-8.814;2023-07-22T02:19:18;100648.31;;;19.21;100.00
64340;BME280;63709;53.258;-8.814;2023-07-22T02:21:44;100641.91;;;19.14;100.00
64340;BME280;63709;53.258;-8.814;2023-07-22T02:24:09;100643.28;;;19.10;100.00
64340;BME280;63709;53.258;-8.814;2023-07-22T02:26:35;100643.44;;;19.08;100.00
64340;BME280;63709;53.258;-8.814;2023-07-22T02:29:02;100639.06;;;19.07;100.00
64340;BME280;63709;53.258;-8.814;2023-07-22T02:31:28;100632.94;;;19.14;100.00
64340;BME280;63709;53.258;-8.814;2023-07-22T02:33:54;100637.69;;;19.12;100.00
64340;BME280;63709;53.258;-8.814;2023-07-22T02:36:19;100631.56;;;19.18;100.00
64340;BME280;63709;53.258;-8.814;2023-07-22T02:38:45;100621.09;;;19.15;100.00
64340;BME280;63709;53.258;-8.814;2023-07-22T02:41:12;100621.75;;;19.17;100.00
64340;BME280;63709;53.258;-8.814;2023-07-22T02:43:37;100613.28;;;19.20;100.00
64340;BME280;63709;53.258;-8.814;2023-07-22T02:46:05;100617.72;;;19.13;100.00
64340;BME280;63709;53.258;-8.814;2023-07-22T02:48:34;100609.09;;;19.09;100.00
64340;BME280;63709;53.258;-8.814;2023-07-22T02:51:09;100603.03;;;19.07;100.00
64340;BME280;63709;53.258;-8.814;2023-07-22T02:53:36;100607.28;;;19.01;100.00
64340;BME280;63709;53.258;-8.814;2023-07-22T02:56:05;100595.47;;;19.02;100.00
64340;BME280;63709;53.258;-8.814;2023-07-22T02:58:35;100596.41;;;19.09;100.00
64340;BME280;63709;53.258;-8.814;2023-07-22T03:01:02;100587.66;;;19.07;100.00
64340;BME280;63709;53.258;-8.814;2023-07-22T03:03:36;100586.31;;;19.03;100.00
64340;BME280;63709;53.258;-8.814;2023-07-22T03:06:02;100580.06;;;19.03;100.00
64340;BME280;63709;53.258;-8.814;2023-07-22T03:08:29;100576.81;;;19.07;100.00
64340;BME280;63709;53.258;-8.814;2023-07-22T03:10:55;100574.66;;;19.03;100.00
64340;BME280;63709;53.258;-8.814;2023-07-22T03:13:22;100569.06;;;19.04;100.00
64340;BME280;63709;53.258;-8.814;2023-07-22T03:15:49;100575.31;;;19.05;100.00
64340;BME280;63709;53.258;-8.814;2023-07-22T03:18:37;100569.25;;;19.03;100.00
64340;BME280;63709;53.258;-8.814;2023-07-22T03:21:05;100570.13;;;18.95;100.00
64340;BME280;63709;53.258;-8.814;2023-07-22T03:23:31;100566.53;;;19.03;100.00
64340;BME280;63709;53.258;-8.814;2023-07-22T03:25:56;100556.72;;;19.02;100.00
64340;BME280;63709;53.258;-8.814;2023-07-22T03:28:22;100563.34;;;18.99;100.00
64340;BME280;63709;53.258;-8.814;2023-07-22T03:30:48;100553.50;;;19.06;100.00
64340;BME280;63709;53.258;-8.814;2023-07-22T03:33:15;100552.16;;;19.02;100.00
64340;BME280;63709;53.258;-8.814;2023-07-22T03:35:44;100549.97;;;18.98;100.00
64340;BME280;63709;53.258;-8.814;2023-07-22T03:38:10;100556.91;;;19.00;100.00
64340;BME280;63709;53.258;-8.814;2023-07-22T03:40:37;100542.88;;;18.97;100.00
64340;BME280;63709;53.258;-8.814;2023-07-22T03:43:03;100550.31;;;18.95;100.00
64340;BME280;63709;53.258;-8.814;2023-07-22T03:45:28;100536.28;;;18.99;100.00
64340;BME280;63709;53.258;-8.814;2023-07-22T03:47:57;100531.03;;;19.06;100.00
64340;BME280;63709;53.258;-8.814;2023-07-22T03:50:24;100537.78;;;19.02;100.00
64340;BME280;63709;53.258;-8.814;2023-07-22T03:52:50;100526.75;;;19.12;100.00
64340;BME280;63709;53.258;-8.814;2023-07-22T03:55:17;100529.94;;;19.15;100.00
64340;BME280;63709;53.258;-8.814;2023-07-22T03:57:45;100531.75;;;19.23;100.00
64340;BME280;63709;53.258;-8.814;2023-07-22T04:00:13;100525.50;;;19.22;100.00
64340;BME280;63709;53.258;-8.814;2023-07-22T04:02:41;100516.91;;;19.19;100.00
64340;BME280;63709;53.258;-8.814;2023-07-22T04:05:07;100520.78;;;19.16;100.00
64340;BME280;63709;53.258;-8.814;2023-07-22T04:07:33;100517.56;;;19.21;100.00
64340;BME280;63709;53.258;-8.814;2023-07-22T04:09:59;100508.28;;;19.15;100.00
64340;BME280;63709;53.258;-8.814;2023-07-22T04:12:25;100509.63;;;19.19;100.00
64340;BME280;63709;53.258;-8.814;2023-07-22T04:14:50;100508.06;;;19.25;100.00
64340;BME280;63709;53.258;-8.814;2023-07-22T04:17:16;100510.09;;;19.23;100.00
64340;BME280;63709;53.258;-8.814;2023-07-22T04:19:43;100506.75;;;19.21;100.00
64340;BME280;63709;53.258;-8.814;2023-07-22T04:22:08;100504.81;;;19.29;100.00
64340;BME280;63709;53.258;-8.814;2023-07-22T04:24:34;100507.88;;;19.26;100.00
64340;BME280;63709;53.258;-8.814;2023-07-22T04:27:00;100501.63;;;19.26;100.00
64340;BME280;63709;53.258;-8.814;2023-07-22T04:29:26;100496.56;;;19.23;100.00
64340;BME280;63709;53.258;-8.814;2023-07-22T04:31:56;100482.75;;;19.18;100.00
64340;BME280;63709;53.258;-8.814;2023-07-22T04:34:23;100489.22;;;19.31;100.00
64340;BME280;63709;53.258;-8.814;2023-07-22T04:36:52;100492.81;;;19.32;100.00
64340;BME280;63709;53.258;-8.814;2023-07-22T04:39:18;100490.09;;;19.32;100.00
64340;BME280;63709;53.258;-8.814;2023-07-22T04:41:44;100489.72;;;19.35;100.00
64340;BME280;63709;53.258;-8.814;2023-07-22T04:44:11;100481.59;;;19.35;100.00
64340;BME280;63709;53.258;-8.814;2023-07-22T04:46:36;100488.31;;;19.39;100.00
64340;BME280;63709;53.258;-8.814;2023-07-22T04:49:03;100489.69;;;19.43;100.00
64340;BME280;63709;53.258;-8.814;2023-07-22T04:51:30;100478.53;;;19.38;100.00
64340;BME280;63709;53.258;-8.814;2023-07-22T04:53:57;100479.91;;;19.34;100.00
64340;BME280;63709;53.258;-8.814;2023-07-22T04:56:23;100471.91;;;19.41;100.00
64340;BME280;63709;53.258;-8.814;2023-07-22T04:58:48;100475.34;;;19.34;100.00
64340;BME280;63709;53.258;-8.814;2023-07-22T05:01:16;100470.97;;;19.33;100.00
64340;BME280;63709;53.258;-8.814;2023-07-22T05:03:42;100468.38;;;19.40;100.00
64340;BME280;63709;53.258;-8.814;2023-07-22T05:06:08;100466.31;;;19.42;100.00
64340;BME280;63709;53.258;-8.814;2023-07-22T05:08:35;100461.25;;;19.39;100.00
64340;BME280;63709;53.258;-8.814;2023-07-22T05:11:10;100461.56;;;19.44;100.00
64340;BME280;63709;53.258;-8.814;2023-07-22T05:13:36;100461.25;;;19.39;100.00
64340;BME280;63709;53.258;-8.814;2023-07-22T05:16:02;100454.97;;;19.47;100.00
64340;BME280;63709;53.258;-8.814;2023-07-22T05:18:28;100451.88;;;19.50;100.00
64340;BME280;63709;53.258;-8.814;2023-07-22T05:20:53;100450.66;;;19.52;100.00
64340;BME280;63709;53.258;-8.814;2023-07-22T05:23:19;100457.41;;;19.56;100.00
64340;BME280;63709;53.258;-8.814;2023-07-22T05:25:49;100452.81;;;19.57;100.00
64340;BME280;63709;53.258;-8.814;2023-07-22T05:28:15;100446.41;;;19.58;100.00
64340;BME280;63709;53.258;-8.814;2023-07-22T05:30:43;100447.03;;;19.60;100.00
64340;BME280;63709;53.258;-8.814;2023-07-22T05:33:08;100444.84;;;19.64;100.00
64340;BME280;63709;53.258;-8.814;2023-07-22T05:35:33;100445.53;;;19.66;100.00
64340;BME280;63709;53.258;-8.814;2023-07-22T05:38:00;100432.97;;;19.65;100.00
64340;BME280;63709;53.258;-8.814;2023-07-22T05:40:29;100429.28;;;19.66;100.00
64340;BME280;63709;53.258;-8.814;2023-07-22T05:42:54;100432.25;;;19.71;100.00
64340;BME280;63709;53.258;-8.814;2023-07-22T05:45:19;100422.94;;;19.73;100.00
64340;BME280;63709;53.258;-8.814;2023-07-22T05:47:48;100426.28;;;19.75;100.00
64340;BME280;63709;53.258;-8.814;2023-07-22T05:50:14;100425.91;;;19.78;100.00
64340;BME280;63709;53.258;-8.814;2023-07-22T05:52:39;100420.13;;;19.81;100.00
64340;BME280;63709;53.258;-8.814;2023-07-22T05:55:04;100416.03;;;19.86;100.00
64340;BME280;63709;53.258;-8.814;2023-07-22T05:57:31;100423.44;;;19.92;100.00
64340;BME280;63709;53.258;-8.814;2023-07-22T05:59:56;100413.41;;;19.92;100.00
64340;BME280;63709;53.258;-8.814;2023-07-22T06:02:22;100414.72;;;19.96;100.00
64340;BME280;63709;53.258;-8.814;2023-07-22T06:04:47;100410.16;;;19.97;100.00
64340;BME280;63709;53.258;-8.814;2023-07-22T06:07:13;100395.88;;;19.88;100.00
64340;BME280;63709;53.258;-8.814;2023-07-22T06:09:40;100412.13;;;20.03;100.00
64340;BME280;63709;53.258;-8.814;2023-07-22T06:12:05;100415.00;;;20.01;100.00
64340;BME280;63709;53.258;-8.814;2023-07-22T06:14:33;100410.25;;;20.03;100.00
64340;BME280;63709;53.258;-8.814;2023-07-22T06:16:58;100406.34;;;20.06;100.00
64340;BME280;63709;53.258;-8.814;2023-07-22T06:19:25;100405.31;;;20.07;100.00
64340;BME280;63709;53.258;-8.814;2023-07-22T06:21:53;100399.97;;;20.14;100.00
64340;BME280;63709;53.258;-8.814;2023-07-22T06:24:20;100399.97;;;20.14;100.00
64340;BME280;63709;53.258;-8.814;2023-07-22T06:26:47;100404.63;;;20.20;100.00
64340;BME280;63709;53.258;-8.814;2023-07-22T06:29:16;100399.88;;;20.22;100.00
64340;BME280;63709;53.258;-8.814;2023-07-22T06:31:43;100401.16;;;20.26;100.00
64340;BME280;63709;53.258;-8.814;2023-07-22T06:34:08;100406.22;;;20.29;100.00
64340;BME280;63709;53.258;-8.814;2023-07-22T06:36:34;100399.75;;;20.30;100.00
64340;BME280;63709;53.258;-8.814;2023-07-22T06:39:01;100398.72;;;20.31;100.00
64340;BME280;63709;53.258;-8.814;2023-07-22T06:41:26;100394.22;;;20.38;100.00
64340;BME280;63709;53.258;-8.814;2023-07-22T06:43:52;100396.94;;;20.38;100.00
64340;BME280;63709;53.258;-8.814;2023-07-22T06:46:19;100392.81;;;20.42;100.00
64340;BME280;63709;53.258;-8.814;2023-07-22T06:48:47;100386.84;;;20.47;100.00
64340;BME280;63709;53.258;-8.814;2023-07-22T06:51:15;100396.09;;;20.52;100.00
64340;BME280;63709;53.258;-8.814;2023-07-22T06:53:41;100398.06;;;20.59;100.00
64340;BME280;63709;53.258;-8.814;2023-07-22T06:56:07;100391.41;;;20.61;100.00
64340;BME280;63709;53.258;-8.814;2023-07-22T06:58:32;100387.09;;;20.67;100.00
64340;BME280;63709;53.258;-8.814;2023-07-22T07:00:58;100388.84;;;20.74;100.00
64340;BME280;63709;53.258;-8.814;2023-07-22T07:03:25;100382.00;;;20.78;100.00
64340;BME280;63709;53.258;-8.814;2023-07-22T07:05:57;100382.47;;;20.82;100.00
64340;BME280;63709;53.258;-8.814;2023-07-22T07:08:25;100378.69;;;20.83;100.00
64340;BME280;63709;53.258;-8.814;2023-07-22T07:10:56;100375.22;;;20.89;100.00
64340;BME280;63709;53.258;-8.814;2023-07-22T07:13:21;100383.00;;;20.92;100.00
64340;BME280;63709;53.258;-8.814;2023-07-22T07:15:50;100377.81;;;20.97;100.00
64340;BME280;63709;53.258;-8.814;2023-07-22T07:18:17;100366.81;;;21.06;100.00
64340;BME280;63709;53.258;-8.814;2023-07-22T07:20:43;100364.16;;;21.12;100.00
64340;BME280;63709;53.258;-8.814;2023-07-22T07:23:10;100364.84;;;21.21;100.00
64340;BME280;63709;53.258;-8.814;2023-07-22T07:25:37;100358.66;;;21.27;100.00
64340;BME280;63709;53.258;-8.814;2023-07-22T07:28:03;100359.59;;;21.34;100.00
64340;BME280;63709;53.258;-8.814;2023-07-22T07:30:29;100365.25;;;21.39;100.00
64340;BME280;63709;53.258;-8.814;2023-07-22T07:32:56;100360.94;;;21.45;100.00
64340;BME280;63709;53.258;-8.814;2023-07-22T07:35:22;100360.53;;;21.48;100.00
64340;BME280;63709;53.258;-8.814;2023-07-22T07:37:49;100360.53;;;21.48;100.00
64340;BME280;63709;53.258;-8.814;2023-07-22T07:40:14;100358.44;;;21.50;100.00
64340;BME280;63709;53.258;-8.814;2023-07-22T07:42:46;100359.28;;;21.50;100.00
64340;BME280;63709;53.258;-8.814;2023-07-22T07:45:12;100361.38;;;21.48;100.00
64340;BME280;63709;53.258;-8.814;2023-07-22T07:47:38;100358.66;;;21.48;100.00
64340;BME280;63709;53.258;-8.814;2023-07-22T07:50:04;100359.50;;;21.49;100.00
64340;BME280;63709;53.258;-8.814;2023-07-22T07:52:30;100363.84;;;21.43;100.00
64340;BME280;63709;53.258;-8.814;2023-07-22T07:54:56;100355.50;;;21.45;100.00
64340;BME280;63709;53.258;-8.814;2023-07-22T07:57:21;100358.88;;;21.47;100.00
64340;BME280;63709;53.258;-8.814;2023-07-22T07:59:47;100348.84;;;21.47;100.00
64340;BME280;63709;53.258;-8.814;2023-07-22T08:02:15;100344.28;;;21.55;100.00
64340;BME280;63709;53.258;-8.814;2023-07-22T08:04:40;100349.06;;;21.53;100.00
64340;BME280;63709;53.258;-8.814;2023-07-22T08:07:09;100349.28;;;21.51;100.00
64340;BME280;63709;53.258;-8.814;2023-07-22T08:09:42;100339.31;;;21.58;100.00
64340;BME280;63709;53.258;-8.814;2023-07-22T08:12:13;100347.63;;;21.57;100.00
64340;BME280;63709;53.258;-8.814;2023-07-22T08:14:43;100343.28;;;21.62;100.00
64340;BME280;63709;53.258;-8.814;2023-07-22T08:17:08;100338.03;;;21.61;100.00
64340;BME280;63709;53.258;-8.814;2023-07-22T08:19:35;100341.41;;;21.63;100.00
64340;BME280;63709;53.258;-8.814;2023-07-22T08:22:04;100334.94;;;21.64;100.00
64340;BME280;63709;53.258;-8.814;2023-07-22T08:24:32;100341.91;;;21.73;100.00
64340;BME280;63709;53.258;-8.814;2023-07-22T08:26:57;100338.13;;;21.74;100.00
64340;BME280;63709;53.258;-8.814;2023-07-22T08:29:23;100342.75;;;21.73;100.00
64340;BME280;63709;53.258;-8.814;2023-07-22T08:31:49;100342.56;;;21.82;100.00
64340;BME280;63709;53.258;-8.814;2023-07-22T08:34:14;100336.53;;;21.86;100.00
64340;BME280;63709;53.258;-8.814;2023-07-22T08:36:41;100337.41;;;21.93;100.00
64340;BME280;63709;53.258;-8.814;2023-07-22T08:39:06;100330.25;;;21.86;100.00
64340;BME280;63709;53.258;-8.814;2023-07-22T08:44:08;100330.28;;;21.92;100.00
64340;BME280;63709;53.258;-8.814;2023-07-22T08:46:37;100329.47;;;21.92;100.00
64340;BME280;63709;53.258;-8.814;2023-07-22T08:49:04;100327.81;;;21.97;100.00
64340;BME280;63709;53.258;-8.814;2023-07-22T08:51:31;100324.47;;;22.02;100.00
64340;BME280;63709;53.258;-8.814;2023-07-22T08:53:57;100321.75;;;22.02;100.00
64340;BME280;63709;53.258;-8.814;2023-07-22T08:56:24;100315.31;;;22.10;100.00
64340;BME280;63709;53.258;-8.814;2023-07-22T08:58:51;100313.03;;;22.07;100.00
64340;BME280;63709;53.258;-8.814;2023-07-22T09:01:16;100313.25;;;22.12;100.00
64340;BME280;63709;53.258;-8.814;2023-07-22T09:03:47;100304.50;;;22.16;100.00
64340;BME280;63709;53.258;-8.814;2023-07-22T09:06:13;100307.66;;;22.20;100.00
64340;BME280;63709;53.258;-8.814;2023-07-22T09:08:38;100309.31;;;22.14;100.00
64340;BME280;63709;53.258;-8.814;2023-07-22T09:11:05;100306.19;;;22.17;100.00
64340;BME280;63709;53.258;-8.814;2023-07-22T09:13:30;100309.13;;;22.22;100.00
64340;BME280;63709;53.258;-8.814;2023-07-22T09:15:58;100304.31;;;22.25;100.00
64340;BME280;63709;53.258;-8.814;2023-07-22T09:18:27;100302.66;;;22.30;100.00
64340;BME280;63709;53.258;-8.814;2023-07-22T09:20:52;100299.72;;;22.32;100.00
64340;BME280;63709;53.258;-8.814;2023-07-22T09:23:18;100291.38;;;22.33;100.00
64340;BME280;63709;53.258;-8.814;2023-07-22T09:25:43;100289.94;;;22.37;100.00
64340;BME280;63709;53.258;-8.814;2023-07-22T09:28:09;100291.63;;;22.45;100.00
64340;BME280;63709;53.258;-8.814;2023-07-22T09:30:39;100289.94;;;22.51;100.00
64340;BME280;63709;53.258;-8.814;2023-07-22T09:33:19;100292.06;;;22.55;100.00
64340;BME280;63709;53.258;-8.814;2023-07-22T09:35:47;100286.19;;;22.65;100.00
64340;BME280;63709;53.258;-8.814;2023-07-22T09:38:14;100293.78;;;22.69;100.00
64340;BME280;63709;53.258;-8.814;2023-07-22T09:40:47;100285.16;;;22.59;100.00
64340;BME280;63709;53.258;-8.814;2023-07-22T09:43:13;100287.91;;;22.66;100.00
64340;BME280;63709;53.258;-8.814;2023-07-22T09:45:39;100284.34;;;22.72;100.00
64340;BME280;63709;53.258;-8.814;2023-07-22T09:48:04;100294.59;;;22.77;100.00
64340;BME280;63709;53.258;-8.814;2023-07-22T09:50:31;100290.59;;;22.73;100.00
64340;BME280;63709;53.258;-8.814;2023-07-22T09:52:58;100286.22;;;22.71;100.00
64340;BME280;63709;53.258;-8.814;2023-07-22T09:55:32;100290.41;;;22.74;100.00
64340;BME280;63709;53.258;-8.814;2023-07-22T09:57:59;100292.50;;;22.79;100.00
64340;BME280;63709;53.258;-8.814;2023-07-22T10:00:35;100287.91;;;22.79;100.00
64340;BME280;63709;53.258;-8.814;2023-07-22T10:03:02;100285.81;;;22.81;100.00
64340;BME280;63709;53.258;-8.814;2023-07-22T10:05:30;100284.97;;;22.87;100.00
64340;BME280;63709;53.258;-8.814;2023-07-22T10:08:00;100283.31;;;22.86;100.00
64340;BME280;63709;53.258;-8.814;2023-07-22T10:10:30;100283.88;;;22.62;100.00
64340;BME280;63709;53.258;-8.814;2023-07-22T10:12:58;100290.44;;;22.81;100.00
64340;BME280;63709;53.258;-8.814;2023-07-22T10:15:28;100284.53;;;22.84;100.00
64340;BME280;63709;53.258;-8.814;2023-07-22T10:17:55;100282.25;;;22.81;100.00
64340;BME280;63709;53.258;-8.814;2023-07-22T10:20:27;100275.13;;;22.80;100.00
64340;BME280;63709;53.258;-8.814;2023-07-22T10:22:53;100281.63;;;22.79;100.00
64340;BME280;63709;53.258;-8.814;2023-07-22T10:25:20;100275.97;;;22.80;100.00
64340;BME280;63709;53.258;-8.814;2023-07-22T10:27:46;100277.66;;;22.81;100.00
64340;BME280;63709;53.258;-8.814;2023-07-22T10:30:12;100275.34;;;22.71;100.00
64340;BME280;63709;53.258;-8.814;2023-07-22T10:32:39;100272.19;;;22.75;100.00
64340;BME280;63709;53.258;-8.814;2023-07-22T10:35:12;100267.81;;;22.74;100.00
64340;BME280;63709;53.258;-8.814;2023-07-22T10:37:40;100265.28;;;22.65;100.00
64340;BME280;63709;53.258;-8.814;2023-07-22T10:40:28;100265.72;;;22.76;100.00
64340;BME280;63709;53.258;-8.814;2023-07-22T10:42:57;100258.41;;;22.69;100.00
64340;BME280;63709;53.258;-8.814;2023-07-22T10:45:30;100255.03;;;22.74;100.00
64340;BME280;63709;53.258;-8.814;2023-07-22T10:53:05;100255.88;;;22.81;100.00
64340;BME280;63709;53.258;-8.814;2023-07-22T10:55:30;100248.34;;;22.83;100.00
64340;BME280;63709;53.258;-8.814;2023-07-22T10:57:58;100245.00;;;22.88;100.00
64340;BME280;63709;53.258;-8.814;2023-07-22T11:00:31;100255.06;;;22.94;100.00
64340;BME280;63709;53.258;-8.814;2023-07-22T11:03:13;100241.25;;;22.96;100.00
64340;BME280;63709;53.258;-8.814;2023-07-22T11:05:49;100245.22;;;23.00;100.00
64340;BME280;63709;53.258;-8.814;2023-07-22T11:08:16;100242.72;;;23.05;100.00
64340;BME280;63709;53.258;-8.814;2023-07-22T11:10:54;100238.94;;;23.06;100.00
64340;BME280;63709;53.258;-8.814;2023-07-22T11:13:29;100236.00;;;23.07;100.00
64340;BME280;63709;53.258;-8.814;2023-07-22T11:15:58;100236.44;;;23.11;100.00
64340;BME280;63709;53.258;-8.814;2023-07-22T11:18:45;100225.13;;;23.14;100.00
64340;BME280;63709;53.258;-8.814;2023-07-22T11:21:10;100234.09;;;23.21;100.00
64340;BME280;63709;53.258;-8.814;2023-07-22T11:23:36;100228.22;;;23.24;100.00
64340;BME280;63709;53.258;-8.814;2023-07-22T11:26:03;100224.66;;;23.17;100.00
64340;BME280;63709;53.258;-8.814;2023-07-22T11:28:28;100230.09;;;23.30;100.00
64340;BME280;63709;53.258;-8.814;2023-07-22T11:30:57;100221.28;;;23.28;100.00
64340;BME280;63709;53.258;-8.814;2023-07-22T11:33:24;100218.78;;;23.40;100.00
64340;BME280;63709;53.258;-8.814;2023-07-22T11:35:52;100217.72;;;23.41;100.00
64340;BME280;63709;53.258;-8.814;2023-07-22T11:38:19;100215.22;;;23.33;100.00
64340;BME280;63709;53.258;-8.814;2023-07-22T11:43:20;100218.78;;;23.33;100.00
64340;BME280;63709;53.258;-8.814;2023-07-22T11:45:46;100206.66;;;23.16;100.00
64340;BME280;63709;53.258;-8.814;2023-07-22T11:48:16;100206.22;;;23.26;100.00
64340;BME280;63709;53.258;-8.814;2023-07-22T11:50:43;100206.25;;;23.19;100.00
64340;BME280;63709;53.258;-8.814;2023-07-22T11:53:09;100204.34;;;23.13;100.00
64340;BME280;63709;53.258;-8.814;2023-07-22T11:55:35;100208.38;;;23.10;100.00
64340;BME280;63709;53.258;-8.814;2023-07-22T11:58:02;100204.59;;;23.05;100.00
64340;BME280;63709;53.258;-8.814;2023-07-22T12:00:28;100197.91;;;23.01;100.00
64340;BME280;63709;53.258;-8.814;2023-07-22T12:02:55;100193.28;;;22.94;100.00
64340;BME280;63709;53.258;-8.814;2023-07-22T12:05:25;100190.56;;;22.94;100.00
64340;BME280;63709;53.258;-8.814;2023-07-22T12:07:51;100180.28;;;22.90;100.00
64340;BME280;63709;53.258;-8.814;2023-07-22T12:10:18;100184.91;;;22.89;100.00
64340;BME280;63709;53.258;-8.814;2023-07-22T12:12:46;100179.06;;;22.92;100.00
64340;BME280;63709;53.258;-8.814;2023-07-22T12:15:16;100178.84;;;22.94;100.00
64340;BME280;63709;53.258;-8.814;2023-07-22T12:17:58;100181.53;;;22.87;100.00
64340;BME280;63709;53.258;-8.814;2023-07-22T12:20:33;100171.94;;;22.91;100.00
64340;BME280;63709;53.258;-8.814;2023-07-22T12:22:59;100178.44;;;22.97;100.00
64340;BME280;63709;53.258;-8.814;2023-07-22T12:25:27;100166.06;;;23.01;100.00
64340;BME280;63709;53.258;-8.814;2023-07-22T12:27:54;100172.34;;;23.08;100.00
64340;BME280;63709;53.258;-8.814;2023-07-22T12:30:21;100172.31;;;23.15;100.00
64340;BME280;63709;53.258;-8.814;2023-07-22T12:32:52;100171.25;;;23.16;100.00
64340;BME280;63709;53.258;-8.814;2023-07-22T12:35:19;100171.50;;;23.08;100.00
64340;BME280;63709;53.258;-8.814;2023-07-22T12:37:45;100172.31;;;23.15;100.00
64340;BME280;63709;53.258;-8.814;2023-07-22T12:40:19;100165.00;;;23.15;100.00
64340;BME280;63709;53.258;-8.814;2023-07-22T12:42:47;100169.38;;;23.16;100.00